Strona główna
METAR-TAF:

METAR-TAF

Lotnisko :

Port lotniczy Albrook "Marcos A. Gelabert"

Panama, Panama

Szerokość geograficzna: 08-59N, Długość geograficzna: 079-31W, wysokość: 13 m

Aktualna obserwacja pogody

Raport powstał 7 godziny i 51 minut temu, godzina 03:00 UTC
Wiatr 3 kt od zachód, zmienny między zachodnio-południowy zachód i zachodnio-północny zachód
Temperatura 25°C
Wilgotność 94%
Ciśnienie 1012 hPa
Widzialność 10 km lub więcej
Mało chmury na wysokości 2000 ft
Rozproszone chmury na wysokości 9000 ft

METAR: MPMG 200300Z 27003KT 240V300 9999 FEW020 SCT090 25/24 Q1012 NOSIG

czas: 05:51 (10:51 UTC)

Prognoza

Raport powstał 11 godziny i 51 minut temu, godzina 23:00 UTC
Prognoza ważna od 20 godzina 00 UTC do 20 godzina 12 UTC
Wiatr 6 kt od zachodnio-północny zachód
Widzialność 10 km lub więcej
Rozproszone chmury na wysokości 1800 ft
Rozproszone chmury na wysokości 9000 ft

TAF: MPMG 192300Z 2000/2012 30006KT 9999 SCT018 SCT090

Obserwacja i prognoza pogody dla ponad 4000 lotnisk (raport METAR i TAF).

Dostępne stacje oznaczono żółtymi i czerwonymi punktami na mapie.

Najedź kursorem aby zobaczyć nazwę stacji.

Kliknij aby zobaczyć obserwacje i prognozy pogody.

Aby zmienić mapę: kliknij na zielony przycisk z czarnym krzyżykiem, aby powiększyć; na zielony przycisk z myślnikiem, aby pomniejszyć; na zielone strzałki, aby przejść do map sąsiednich.


METAR-TAF: